In Rescue
 
Open Full Screen Window  High Contrast Mode
January 28, 2020 11:47 PM EST
Weather Information
Wind Direction
  ---
Wind Speed
  00 kt (0 mph)
Wind Gust
  00 kt (0 mph)
Altimeter
30.14 in
Visibility
10 SM
Temperature
-02° C
28° F
Dewpoint
-06° C
21° F
Humidity
74%
Sky Condition
Overcast @ 1,800 ft
MVFR

METAR KACB 290447Z AUTO 00000KT 10SM OVC018 M02/M06 A3014 RMK AO2 T10221058

FAA Disclaimer: The data displayed is for advisory purposes only and is not to be used for flight planning or operations.